Terminal Aerodrome Forecast
Issued by NWS Wilmington, OH

Current Version | Previous Version | Text Only | Print | Product List | Glossary Off
Versions: 1 2 3 4 5 6 7 8 9 10 11 12 13 14 15 16 17 18 19 20 21 22 23 24 25 26

000
FTUS41 KILN 291300 AAA
TAFDAY
TAF AMD
KDAY 291306Z 2913/3012 13011KT 3SM RA BR FEW040 BKN070 OVC090
      TEMPO 2913/2916 2SM TSRA OVC035CB
     FM291700 18012G22KT P6SM VCTS BKN040CB
     FM292300 21010KT P6SM VCSH BKN035
     FM300200 23008KT P6SM BKN035=

USA.gov is the U.S. government's official web portal to all federal, state and local government web resources and services.